Elkhart, IN

7:25 AM EDT on August 27, 2016 (GMT -0400)
Martins Landing | | Change Station

Elev 741 ft 41.69 °N, 85.95 °W | Updated 2 minutes ago

Partly Cloudy
Partly Cloudy
70.2 °F
Feels Like 70.2 °F
N
0.0
Wind Variable Wind from South

Today
High -- | Low -- °F
--% Chance of Precip.
Yesterday
High -- | Low -- °F
Precip. -- in
Pressure 30.08 in
Visibility 10.0 miles
Clouds Few 8500 ft
Dew Point 66 °F
Humidity 85%
Rainfall 0.00 in
Snow Depth Not available.
7:05 AM 8:24 PM
Waning Crescent, 25% visible
METAR KGSH 271053Z AUTO 10005KT 10SM FEW085 21/17 A3009 RMK AO2 SLP184 T02110172
Pressure 30.08 in
Visibility 10.0 miles
Clouds Few 8500 ft
Dew Point 66 °F
Humidity 85%
Rainfall 0.00 in
Snow Depth Not available.
7:05 AM 8:24 PM
Waning Crescent, 25% visible
METAR KGSH 271053Z AUTO 10005KT 10SM FEW085 21/17 A3009 RMK AO2 SLP184 T02110172

10-Day Weather Forecast

Almanac

Astronomy

Aug. 27, 2016 Rise Set
Actual Time
Civil Twilight
Nautical Twilight
Astronomical Twilight
Moon
Length of Visible Light
Length of Day
Tomorrow will be .
, % of the Moon is Illuminated

Today's Extremes

State Highs State Lows

Community

WunderPhotos

Upload Photos

1,935,322 photos uploaded!

WunderBlog® & News

Nearby

Air Quality

  Air Quality AQ Index Pollutant
Not available.

Snow Depth

Station Depth Elevation

Earthquake Activity

City Distance Mag. Time & Date
Minimum magnitude displayed is 2.5.

Coastal Water Temperatures

Place Temperature

Stations

Nearby Weather Stations

Station Location Temp. Windchill Dew Point Humidity Wind Precip. Elev Updated Type
                   

Watches & Warnings

There are currently no watches in effect.